Jackson, KY (41339)

2:37 PM EDT on October 23, 2014 (GMT -0400)
Carroll | Change Station
CLOSE
Current Station
Airport
Location: Jackson,
Elevation: 1381 ft
Nearby Weather Stations

Elev 1381 ft 37.59 °N, 83.31 °W | Updated 44 minutes ago

Clear
Clear
56 °F
Feels Like 56 °F
N
0
Wind Variable Wind from North

Today
High -- | Low -- °F
--% Chance of Precip.
Yesterday
High -- | Low -- °F
Precip. -- in
7:49 AM 6:45 PM
Waning Crescent, 0% visible
Pressure 30.18 in
Visibility 10.0 miles
Clouds Few 3300 ft
Dew Point 39 °F
Humidity 53%
Rainfall 0.00 in
Snow Depth Not available.
UV 5 out of 12
Pollen .90 out of 12
Air Quality Not available.
Flu Activity Sporadic
METAR KJKL 231753Z AUTO 00000KT 10SM FEW033 13/04 A3018 RMK AO2 SLP219 T01330039 10133 20072 58019

More Conditions Fewer Conditions

Pressure 30.18 in
Visibility 10.0 miles
Clouds Few 3300 ft
Dew Point 39 °F
Humidity 53%
Rainfall 0.00 in
Snow Depth Not available.
UV 5 out of 12
Pollen .90 out of 12
Air Quality Not available.
Flu Activity Sporadic
METAR KJKL 231753Z AUTO 00000KT 10SM FEW033 13/04 A3018 RMK AO2 SLP219 T01330039 10133 20072 58019

More Conditions Fewer Conditions

10-Day Weather Forecast

Almanac

Astronomy

Oct. 23, 2014 Rise Set
Actual Time 7:49 AM EDT 6:45 PM EDT
Civil Twilight 7:22 AM EDT 7:12 PM EDT
Nautical Twilight 6:52 AM EDT 7:43 PM EDT
Astronomical Twilight 6:22 AM EDT 8:13 PM EDT
Moon 7:28 AM EDT 6:46 PM EDT
Length of Visible Light 11h 49m
Length of Day
10h 56m
Tomorrow will be 2m 14s shorter.
Waning Crescent, 0% of the Moon is Illuminated
Today
Waning Crescent
Oct 23
New
Oct 30
First Quarter
Nov 6
Full
Nov 14
Last Quarter

Today's Extremes

State Highs State Lows

Community

WunderPhotos

Upload Photos

1,764,338 photos uploaded!

WunderBlogs® & News

Nearby

Snow Depth

Station Depth Elevation
No new snow has been reported.

Earthquake Activity

City Distance Mag. Time & Date
No recent earthquake activity has been reported nearby.
Minimum magnitude displayed is 2.5.

Coastal Water Temperatures

Place Temperature
No Stations Reporting

Nearby Weather Stations